Time;durP1;ratioP1;P1;durP2;ratioP2;P2;SDS_P1;SDS_P2;PMS_P1;PMS_P2;Temp;Humidity;BMP_temperature;BMP_pressure;BME280_temperature;BME280_humidity;BME280_pressure;Samples;Min_cycle;Max_cycle;Signal;HPM_P1;HPM_P2
2022/06/20 00:01:38;;;;;;;8.90;2.87;;;;;;;;;;4389109;32;20031;-68
2022/06/20 00:04:04;;;;;;;9.27;3.05;;;;;;;;;;4390504;32;20053;-68
2022/06/20 00:06:29;;;;;;;9.73;3.10;;;;;;;;;;4390916;32;20031;-68
2022/06/20 00:08:54;;;;;;;;;;;;;;;;;;4389578;32;20089;-69
2022/06/20 00:11:22;;;;;;;9.00;3.22;;;;;;;;;;4388877;32;19933;-68
2022/06/20 00:13:49;;;;;;;11.98;3.35;;;;;;;;;;4389029;32;20039;-68
2022/06/20 00:16:15;;;;;;;9.30;2.60;;;;;;;;;;4389947;32;20437;-68
2022/06/20 00:18:40;;;;;;;13.05;3.65;;;;;;;;;;4390732;32;20356;-69
2022/06/20 00:21:06;;;;;;;7.90;3.17;;;;;;;;;;4389974;32;20047;-68
2022/06/20 00:23:31;;;;;;;11.40;2.97;;;;;;;;;;4389202;32;20053;-68
2022/06/20 00:25:56;;;;;;;13.23;4.25;;;;;;;;;;4390216;32;20399;-68
2022/06/20 00:28:21;;;;;;;10.05;3.40;;;;;;;;;;4389126;32;20544;-68
2022/06/20 00:30:47;;;;;;;9.70;2.95;;;;;;;;;;4388862;32;20049;-68
2022/06/20 00:33:12;;;;;;;11.70;3.25;;;;;;;;;;4374860;32;20095;-68
2022/06/20 00:35:37;;;;;;;10.77;2.97;;;;;;;;;;4390356;32;20299;-68
2022/06/20 00:38:03;;;;;;;14.23;4.12;;;;;;;;;;4390152;32;20066;-68
2022/06/20 00:40:28;;;;;;;;;;;;;;;;;;4388628;32;20384;-68
2022/06/20 00:42:54;;;;;;;15.57;3.65;;;;;;;;;;4388804;32;19954;-68
2022/06/20 00:45:20;;;;;;;10.20;3.25;;;;;;;;;;4390019;32;20061;-68
2022/06/20 00:47:47;;;;;;;10.52;3.37;;;;;;;;;;4388543;32;20043;-68
2022/06/20 00:50:24;;;;;;;13.98;3.10;;;;;;;;;;4390593;32;20100;-67
2022/06/20 00:52:59;;;;;;;13.70;3.47;;;;;;;;;;4390024;32;20072;-67
2022/06/20 00:55:33;;;;;;;10.63;3.30;;;;;;;;;;4387980;32;20026;-68
2022/06/20 00:58:04;;;;;;;18.85;4.25;;;;;;;;;;4392387;32;20030;-68
2022/06/20 01:00:32;;;;;;;10.60;3.08;;;;;;;;;;4382593;32;20061;-68
2022/06/20 01:03:02;;;;;;;17.75;4.03;;;;;;;;;;4377666;32;20039;-67
2022/06/20 01:05:35;;;;;;;15.68;4.62;;;;;;;;;;4376287;32;20034;-67
2022/06/20 01:08:03;;;;;;;15.20;4.70;;;;;;;;;;4378093;32;20081;-68
2022/06/20 01:10:32;;;;;;;15.80;3.85;;;;;;;;;;4377920;32;20428;-67
2022/06/20 01:13:00;;;;;;;16.12;3.62;;;;;;;;;;4389236;32;20103;-67
2022/06/20 01:15:28;;;;;;;13.98;4.25;;;;;;;;;;4391721;32;20416;-67
2022/06/20 01:17:53;;;;;;;14.32;4.32;;;;;;;;;;4392744;32;20135;-67
2022/06/20 01:20:21;;;;;;;15.38;4.93;;;;;;;;;;4390579;32;20368;-67
2022/06/20 01:23:09;;;;;;;13.60;3.70;;;;;;;;;;4392241;32;20092;-68
2022/06/20 01:25:43;;;;;;;14.23;3.72;;;;;;;;;;4385535;32;20061;-66
2022/06/20 01:28:10;;;;;;;14.60;4.12;;;;;;;;;;4392619;32;20428;-67
2022/06/20 01:30:39;;;;;;;12.68;3.87;;;;;;;;;;4392351;32;20091;-67
2022/06/20 01:33:04;;;;;;;10.23;3.75;;;;;;;;;;4391609;32;20393;-67
2022/06/20 01:38:14;;;;;;;16.42;3.53;;;;;;;;;;4388802;32;20099;-67
2022/06/20 01:42:18;;;;;;;16.35;3.83;;;;;;;;;;4373739;32;20407;-67
2022/06/20 01:43:26;;;;;;;17.13;3.87;;;;;;;;;;4375584;32;20054;-67
2022/06/20 01:45:58;;;;;;;16.30;3.67;;;;;;;;;;4388361;32;20414;-67
2022/06/20 01:48:25;;;;;;;9.18;2.95;;;;;;;;;;4391769;32;20103;-67
2022/06/20 01:50:50;;;;;;;13.10;3.47;;;;;;;;;;4391708;32;20094;-68
2022/06/20 01:53:18;;;;;;;12.60;3.40;;;;;;;;;;4392281;32;20057;-68
2022/06/20 01:55:45;;;;;;;12.45;3.97;;;;;;;;;;4376539;32;20612;-68
2022/06/20 01:58:14;;;;;;;10.80;3.40;;;;;;;;;;4390662;32;20053;-68
2022/06/20 02:00:39;;;;;;;14.45;3.35;;;;;;;;;;4378167;32;20161;-68
2022/06/20 02:03:09;;;;;;;12.40;3.42;;;;;;;;;;4388753;32;20137;-68
2022/06/20 02:05:35;;;;;;;19.02;4.20;;;;;;;;;;4391433;32;20058;-68
2022/06/20 02:08:02;;;;;;;14.43;3.67;;;;;;;;;;4390028;32;20486;-68
2022/06/20 02:10:30;;;;;;;14.45;3.78;;;;;;;;;;4377542;32;20060;-68
2022/06/20 02:12:57;;;;;;;13.45;3.78;;;;;;;;;;4391630;32;20057;-68
2022/06/20 02:15:22;;;;;;;16.87;4.15;;;;;;;;;;4389429;32;20337;-68
2022/06/20 02:17:49;;;;;;;11.43;3.95;;;;;;;;;;4391607;32;20057;-68
2022/06/20 02:20:17;;;;;;;13.23;3.55;;;;;;;;;;4391143;32;20433;-68
2022/06/20 02:22:42;;;;;;;9.85;3.08;;;;;;;;;;4391393;32;20096;-68
2022/06/20 02:25:10;;;;;;;11.00;3.50;;;;;;;;;;4391822;32;20345;-68
2022/06/20 02:27:53;;;;;;;14.73;3.85;;;;;;;;;;4377620;32;20427;-68
2022/06/20 02:30:19;;;;;;;9.73;3.42;;;;;;;;;;4390320;32;20026;-68
2022/06/20 02:32:46;;;;;;;9.07;3.47;;;;;;;;;;4391484;32;20460;-67
2022/06/20 02:35:14;;;;;;;10.48;2.90;;;;;;;;;;4390177;32;20399;-67
2022/06/20 02:37:39;;;;;;;14.20;3.53;;;;;;;;;;4390951;32;20094;-67
2022/06/20 02:40:08;;;;;;;16.48;3.55;;;;;;;;;;4389050;32;20501;-67
2022/06/20 02:42:35;;;;;;;10.32;4.20;;;;;;;;;;4390223;32;20142;-67
2022/06/20 02:45:01;;;;;;;10.30;2.92;;;;;;;;;;4377438;32;20065;-67
2022/06/20 02:47:27;;;;;;;17.27;3.28;;;;;;;;;;4391359;32;20026;-66
2022/06/20 02:49:54;;;;;;;17.70;4.00;;;;;;;;;;4390061;32;20127;-66
2022/06/20 02:52:21;;;;;;;12.55;3.05;;;;;;;;;;4391510;32;20061;-69
2022/06/20 02:54:47;;;;;;;14.98;3.55;;;;;;;;;;4390906;32;20042;-66
2022/06/20 02:57:15;;;;;;;10.70;2.70;;;;;;;;;;4375501;32;20030;-66
2022/06/20 02:59:42;;;;;;;13.02;3.45;;;;;;;;;;4376503;32;20042;-67
2022/06/20 03:02:09;;;;;;;10.95;3.22;;;;;;;;;;4387149;32;20035;-67
2022/06/20 03:04:36;;;;;;;14.68;3.97;;;;;;;;;;4391278;32;20088;-68
2022/06/20 03:07:03;;;;;;;6.80;2.83;;;;;;;;;;4389676;32;20061;-67
2022/06/20 03:09:31;;;;;;;14.00;3.42;;;;;;;;;;4389446;32;20043;-68
2022/06/20 03:11:56;;;;;;;10.02;2.92;;;;;;;;;;4390221;32;20054;-67
2022/06/20 03:14:25;;;;;;;5.68;2.40;;;;;;;;;;4390633;32;20065;-68
2022/06/20 03:16:51;;;;;;;10.23;3.55;;;;;;;;;;4391452;32;20076;-67
2022/06/20 03:19:19;;;;;;;13.07;3.00;;;;;;;;;;4376275;32;20034;-67
2022/06/20 03:21:45;;;;;;;12.48;3.62;;;;;;;;;;4390780;32;20035;-67
2022/06/20 03:24:14;;;;;;;12.45;2.97;;;;;;;;;;4388967;32;20038;-67
2022/06/20 03:26:40;;;;;;;13.00;3.12;;;;;;;;;;4388207;32;20385;-67
2022/06/20 03:29:05;;;;;;;11.75;2.85;;;;;;;;;;4388879;32;20049;-68
2022/06/20 03:31:30;;;;;;;10.63;2.85;;;;;;;;;;4391105;32;20031;-68
2022/06/20 03:33:56;;;;;;;10.73;2.92;;;;;;;;;;4390538;32;20372;-68
2022/06/20 03:36:22;;;;;;;12.55;3.03;;;;;;;;;;4390603;32;20412;-68
2022/06/20 03:38:48;;;;;;;8.30;2.67;;;;;;;;;;4388929;32;20052;-68
2022/06/20 03:41:15;;;;;;;10.20;2.35;;;;;;;;;;4389122;32;20066;-67
2022/06/20 03:43:41;;;;;;;12.25;3.20;;;;;;;;;;4389485;32;20023;-67
2022/06/20 03:46:11;;;;;;;9.23;2.92;;;;;;;;;;4389919;32;20034;-67
2022/06/20 03:48:41;;;;;;;10.15;3.30;;;;;;;;;;4390623;32;20314;-68
2022/06/20 03:51:11;;;;;;;9.60;3.03;;;;;;;;;;4389372;32;20054;-68
2022/06/20 03:53:39;;;;;;;12.98;3.17;;;;;;;;;;4388944;32;20348;-68
2022/06/20 03:56:07;;;;;;;7.85;3.50;;;;;;;;;;4390309;32;20360;-68
2022/06/20 03:58:35;;;;;;;9.98;3.10;;;;;;;;;;4389752;32;20081;-68
2022/06/20 04:01:06;;;;;;;13.20;3.87;;;;;;;;;;4388710;32;20336;-68
2022/06/20 04:03:39;;;;;;;13.48;3.40;;;;;;;;;;4378784;32;20090;-67
2022/06/20 04:06:08;;;;;;;8.95;3.05;;;;;;;;;;4381099;32;20102;-67
2022/06/20 04:11:19;;;;;;;;;;;;;;;;;;4389991;32;20384;-67
2022/06/20 04:13:54;;;;;;;16.58;3.50;;;;;;;;;;4389020;32;20332;-67
2022/06/20 04:16:25;;;;;;;8.73;2.42;;;;;;;;;;4374497;32;20109;-67
2022/06/20 04:18:50;;;;;;;11.93;3.33;;;;;;;;;;4390320;32;20364;-68
2022/06/20 04:21:18;;;;;;;12.20;3.17;;;;;;;;;;4375809;32;20035;-67
2022/06/20 04:23:57;;;;;;;9.38;2.90;;;;;;;;;;4388944;32;20069;-67
2022/06/20 04:26:30;;;;;;;11.20;3.90;;;;;;;;;;4389960;32;20069;-67
2022/06/20 04:29:05;;;;;;;9.52;2.97;;;;;;;;;;4373835;32;20371;-67
2022/06/20 04:31:30;;;;;;;13.62;4.15;;;;;;;;;;4392433;32;20409;-67
2022/06/20 04:33:55;;;;;;;7.68;2.95;;;;;;;;;;4392291;32;20380;-67
2022/06/20 04:36:23;;;;;;;15.38;3.20;;;;;;;;;;4389375;32;20519;-67
2022/06/20 04:38:53;;;;;;;8.70;2.87;;;;;;;;;;4391002;32;20038;-67
2022/06/20 04:41:56;;;;;;;11.50;2.65;;;;;;;;;;4390737;32;20050;-68
2022/06/20 04:44:28;;;;;;;9.75;2.97;;;;;;;;;;4358057;33;20101;-67
2022/06/20 04:46:57;;;;;;;12.37;3.62;;;;;;;;;;4358615;33;20070;-68
2022/06/20 04:49:22;;;;;;;16.37;3.30;;;;;;;;;;4375528;32;20094;-68
2022/06/20 04:51:49;;;;;;;9.88;3.15;;;;;;;;;;4391885;32;20103;-68
2022/06/20 04:54:16;;;;;;;17.05;3.60;;;;;;;;;;4376060;32;20091;-68
2022/06/20 04:56:42;;;;;;;17.52;4.28;;;;;;;;;;4390195;32;20026;-68
2022/06/20 04:59:11;;;;;;;13.02;3.65;;;;;;;;;;4389836;32;20035;-68
2022/06/20 05:01:38;;;;;;;9.10;2.85;;;;;;;;;;4391984;32;20030;-68
2022/06/20 05:04:07;;;;;;;11.00;3.08;;;;;;;;;;4388677;32;20096;-68
2022/06/20 05:06:32;;;;;;;10.07;3.08;;;;;;;;;;4390783;32;20480;-68
2022/06/20 05:09:06;;;;;;;9.20;2.85;;;;;;;;;;4391466;32;20054;-67
2022/06/20 05:11:33;;;;;;;12.35;3.62;;;;;;;;;;4388949;32;20065;-68
2022/06/20 05:14:04;;;;;;;8.38;3.20;;;;;;;;;;4390247;32;20109;-68
2022/06/20 05:16:31;;;;;;;17.12;3.67;;;;;;;;;;4391327;32;20035;-68
2022/06/20 05:18:58;;;;;;;10.80;4.12;;;;;;;;;;4390723;32;20101;-68
2022/06/20 05:21:26;;;;;;;10.63;3.62;;;;;;;;;;4391827;32;20537;-67
2022/06/20 05:23:53;;;;;;;17.95;3.60;;;;;;;;;;4389883;32;20466;-67
2022/06/20 05:26:20;;;;;;;14.18;4.10;;;;;;;;;;4389639;32;20038;-67
2022/06/20 05:28:47;;;;;;;11.93;3.85;;;;;;;;;;4389841;32;20073;-67
2022/06/20 05:31:15;;;;;;;16.90;4.00;;;;;;;;;;4389619;32;20455;-66
2022/06/20 05:33:47;;;;;;;11.88;4.28;;;;;;;;;;4389889;32;20107;-68
2022/06/20 05:36:21;;;;;;;19.85;4.05;;;;;;;;;;4390303;32;20085;-68
2022/06/20 05:39:11;;;;;;;14.13;4.60;;;;;;;;;;4390663;32;20082;-65
2022/06/20 05:41:36;;;;;;;13.57;3.83;;;;;;;;;;4374866;32;20093;-66
2022/06/20 05:44:02;;;;;;;15.27;4.07;;;;;;;;;;4388876;32;20615;-65
2022/06/20 05:46:30;;;;;;;13.77;3.75;;;;;;;;;;4389365;32;20046;-66
2022/06/20 05:49:01;;;;;;;12.25;3.85;;;;;;;;;;4391152;32;20061;-66
2022/06/20 05:51:27;;;;;;;11.02;3.47;;;;;;;;;;4390322;32;20053;-66
2022/06/20 05:54:09;;;;;;;14.02;4.25;;;;;;;;;;4390153;32;20113;-67
2022/06/20 05:56:38;;;;;;;13.60;4.00;;;;;;;;;;4391762;32;20031;-66
2022/06/20 05:59:04;;;;;;;10.63;3.40;;;;;;;;;;4390803;32;20432;-66
2022/06/20 06:01:31;;;;;;;9.32;3.33;;;;;;;;;;4389660;32;20065;-66
2022/06/20 06:04:24;;;;;;;10.13;3.45;;;;;;;;;;4391554;32;20109;-67
2022/06/20 06:06:53;;;;;;;9.20;3.20;;;;;;;;;;4390394;32;20111;-66
2022/06/20 06:09:20;;;;;;;11.15;3.53;;;;;;;;;;4391805;32;20073;-66
2022/06/20 06:11:54;;;;;;;9.02;3.30;;;;;;;;;;4389174;32;20119;-66
2022/06/20 06:14:24;;;;;;;19.35;4.47;;;;;;;;;;4390906;32;20396;-66
2022/06/20 06:16:56;;;;;;;16.00;3.75;;;;;;;;;;4391249;32;20043;-66
2022/06/20 06:19:30;;;;;;;9.32;3.78;;;;;;;;;;4391040;32;20057;-66
2022/06/20 06:21:58;;;;;;;12.23;3.55;;;;;;;;;;4390286;32;20035;-66
2022/06/20 06:24:24;;;;;;;14.38;3.65;;;;;;;;;;4390662;32;20455;-66
2022/06/20 06:26:51;;;;;;;11.57;3.97;;;;;;;;;;4391499;32;20031;-66
2022/06/20 06:29:22;;;;;;;16.62;4.68;;;;;;;;;;4374505;32;20428;-66
2022/06/20 06:31:49;;;;;;;13.20;3.83;;;;;;;;;;4386399;32;20061;-66
2022/06/20 06:34:23;;;;;;;11.75;4.62;;;;;;;;;;4384594;32;20056;-66
2022/06/20 06:36:50;;;;;;;14.82;4.07;;;;;;;;;;4389629;32;20076;-65
2022/06/20 06:39:20;;;;;;;13.43;3.80;;;;;;;;;;4377140;32;20054;-66
2022/06/20 06:41:46;;;;;;;13.88;4.12;;;;;;;;;;4388514;32;20880;-66
2022/06/20 06:44:29;;;;;;;13.90;4.03;;;;;;;;;;4387430;32;20061;-67
2022/06/20 06:46:54;;;;;;;12.65;3.97;;;;;;;;;;4390166;32;20087;-66
2022/06/20 06:49:23;;;;;;;15.77;3.72;;;;;;;;;;4389143;32;20035;-66
2022/06/20 06:51:59;;;;;;;12.80;3.70;;;;;;;;;;4385391;32;20481;-66
2022/06/20 06:54:46;;;;;;;11.90;5.57;;;;;;;;;;4375427;32;20110;-66
2022/06/20 06:57:24;;;;;;;16.25;4.60;;;;;;;;;;4380672;32;20060;-66
2022/06/20 07:00:05;;;;;;;18.35;4.55;;;;;;;;;;4376143;32;20388;-66
2022/06/20 07:02:39;;;;;;;13.30;3.80;;;;;;;;;;4389684;32;20047;-66
2022/06/20 07:05:16;;;;;;;10.75;3.83;;;;;;;;;;4388974;32;20072;-67
2022/06/20 07:07:45;;;;;;;14.13;3.87;;;;;;;;;;4390415;32;20404;-65
2022/06/20 07:10:18;;;;;;;12.02;3.95;;;;;;;;;;4390438;32;20057;-66
2022/06/20 07:12:50;;;;;;;14.35;3.58;;;;;;;;;;4388892;32;20108;-66
2022/06/20 07:15:17;;;;;;;9.20;3.45;;;;;;;;;;4381396;32;20038;-66
2022/06/20 07:17:48;;;;;;;10.27;3.08;;;;;;;;;;4380386;32;20035;-66
2022/06/20 07:20:14;;;;;;;16.67;4.00;;;;;;;;;;4382607;32;20073;-66
2022/06/20 07:22:41;;;;;;;11.10;3.33;;;;;;;;;;4383567;32;20042;-66
2022/06/20 07:25:12;;;;;;;15.20;3.25;;;;;;;;;;4370962;32;20026;-66
2022/06/20 07:27:40;;;;;;;16.35;4.55;;;;;;;;;;4389938;32;20218;-66
2022/06/20 07:30:08;;;;;;;12.15;4.37;;;;;;;;;;4390008;32;20053;-66
2022/06/20 07:32:39;;;;;;;9.52;4.18;;;;;;;;;;4375140;32;20416;-67
2022/06/20 07:35:16;;;;;;;7.68;3.25;;;;;;;;;;4387822;32;20064;-67
2022/06/20 07:37:47;;;;;;;9.57;3.37;;;;;;;;;;4390082;32;20072;-68
2022/06/20 07:40:20;;;;;;;9.20;2.80;;;;;;;;;;4388186;32;20043;-67
2022/06/20 07:43:08;;;;;;;7.85;3.53;;;;;;;;;;4389588;32;20042;-67
2022/06/20 07:46:03;;;;;;;8.70;3.28;;;;;;;;;;4384022;32;20369;-67
2022/06/20 07:48:30;;;;;;;8.65;3.17;;;;;;;;;;4382852;32;20068;-66
2022/06/20 07:50:59;;;;;;;11.50;3.40;;;;;;;;;;4379359;32;20056;-67
2022/06/20 07:53:27;;;;;;;10.05;3.15;;;;;;;;;;4388339;32;20057;-67
2022/06/20 07:55:59;;;;;;;9.45;3.08;;;;;;;;;;4389858;32;20035;-67
2022/06/20 07:58:35;;;;;;;12.15;3.47;;;;;;;;;;4388092;32;20060;-67
2022/06/20 08:01:00;;;;;;;;;;;;;;;;;;4390354;32;20056;-66
2022/06/20 08:03:25;;;;;;;9.05;3.30;;;;;;;;;;4390102;32;19941;-66
2022/06/20 08:05:55;;;;;;;13.43;4.18;;;;;;;;;;4391947;32;20031;-66
2022/06/20 08:08:24;;;;;;;9.98;3.08;;;;;;;;;;4392944;32;20043;-67
2022/06/20 08:11:01;;;;;;;11.12;3.40;;;;;;;;;;4378963;32;20022;-67
2022/06/20 08:13:36;;;;;;;9.60;3.00;;;;;;;;;;4391836;32;20026;-66
2022/06/20 08:16:14;;;;;;;11.57;3.12;;;;;;;;;;4392947;32;20099;-67
2022/06/20 08:18:39;;;;;;;9.45;2.90;;;;;;;;;;4392677;32;20057;-67
2022/06/20 08:21:11;;;;;;;9.40;2.90;;;;;;;;;;4390677;32;20039;-67
2022/06/20 08:23:43;;;;;;;14.95;3.80;;;;;;;;;;4390958;32;20026;-66
2022/06/20 08:26:09;;;;;;;11.57;3.10;;;;;;;;;;4379490;32;20053;-66
2022/06/20 08:28:37;;;;;;;7.03;2.85;;;;;;;;;;4392214;32;20074;-66
2022/06/20 08:31:15;;;;;;;9.90;2.58;;;;;;;;;;4392471;32;20039;-67
2022/06/20 08:34:03;;;;;;;14.15;3.15;;;;;;;;;;4392284;32;20344;-67
2022/06/20 08:36:37;;;;;;;10.50;3.28;;;;;;;;;;4393096;32;20089;-66
2022/06/20 08:39:06;;;;;;;12.20;2.72;;;;;;;;;;4392369;32;20060;-66
2022/06/20 08:41:41;;;;;;;8.35;2.65;;;;;;;;;;4377238;32;20058;-65
2022/06/20 08:44:27;;;;;;;9.18;2.60;;;;;;;;;;4377086;32;20427;-65
2022/06/20 08:46:53;;;;;;;;;;;;;;;;;;4391866;32;20448;-66
2022/06/20 08:49:34;;;;;;;8.70;2.60;;;;;;;;;;4391650;32;20362;-65
2022/06/20 08:52:19;;;;;;;13.62;2.95;;;;;;;;;;4391837;32;20364;-66
2022/06/20 08:54:56;;;;;;;10.05;2.53;;;;;;;;;;4384343;32;20070;-66
2022/06/20 08:57:29;;;;;;;8.63;2.65;;;;;;;;;;4390717;32;20030;-66
2022/06/20 08:59:54;;;;;;;9.90;2.40;;;;;;;;;;4390924;32;20466;-67
2022/06/20 09:02:38;;;;;;;12.48;3.55;;;;;;;;;;4389424;32;20090;-66
2022/06/20 09:05:03;;;;;;;9.70;2.42;;;;;;;;;;4375890;32;20207;-66
2022/06/20 09:07:37;;;;;;;5.10;1.90;;;;;;;;;;4379566;32;20429;-66
2022/06/20 09:10:06;;;;;;;8.55;2.55;;;;;;;;;;4378351;32;20111;-66
2022/06/20 09:12:34;;;;;;;10.27;2.65;;;;;;;;;;4390156;32;20058;-67
2022/06/20 09:15:17;;;;;;;4.97;1.62;;;;;;;;;;4392218;32;20026;-66
2022/06/20 09:17:48;;;;;;;5.18;1.98;;;;;;;;;;4390219;32;20076;-68
2022/06/20 09:20:22;;;;;;;7.75;2.62;;;;;;;;;;4391787;32;20096;-67
2022/06/20 09:22:47;;;;;;;22.80;3.95;;;;;;;;;;4390486;32;20035;-67
2022/06/20 09:25:19;;;;;;;7.18;2.47;;;;;;;;;;4389417;32;20059;-66
2022/06/20 09:28:00;;;;;;;8.48;3.25;;;;;;;;;;4389933;32;20470;-66
2022/06/20 09:30:32;;;;;;;9.30;2.95;;;;;;;;;;4391210;32;20359;-67
2022/06/20 09:33:09;;;;;;;11.32;2.62;;;;;;;;;;4389968;32;20053;-66
2022/06/20 09:35:34;;;;;;;;;;;;;;;;;;4389295;32;20078;-66
2022/06/20 09:37:59;;;;;;;11.18;2.72;;;;;;;;;;4391040;32;19972;-66
2022/06/20 09:40:47;;;;;;;9.52;2.17;;;;;;;;;;4390623;32;20432;-66
2022/06/20 09:43:22;;;;;;;8.75;2.45;;;;;;;;;;4389872;32;20127;-67
2022/06/20 09:45:50;;;;;;;8.48;2.65;;;;;;;;;;4390806;32;20504;-67
2022/06/20 09:48:21;;;;;;;11.10;3.08;;;;;;;;;;4390806;32;20026;-66
2022/06/20 09:50:49;;;;;;;10.88;2.80;;;;;;;;;;4390224;32;20027;-66
2022/06/20 09:53:24;;;;;;;7.70;3.15;;;;;;;;;;4388129;32;20038;-66
2022/06/20 09:55:58;;;;;;;8.85;3.22;;;;;;;;;;4376946;32;20050;-66
2022/06/20 09:58:30;;;;;;;11.43;3.08;;;;;;;;;;4384509;32;20220;-67
2022/06/20 10:00:55;;;;;;;12.07;3.53;;;;;;;;;;4388680;32;20034;-67
2022/06/20 10:03:29;;;;;;;6.00;2.53;;;;;;;;;;4391311;32;20151;-66
2022/06/20 10:06:01;;;;;;;7.62;2.33;;;;;;;;;;4377101;32;20064;-66
2022/06/20 10:08:45;;;;;;;10.95;3.00;;;;;;;;;;4391878;32;20026;-67
2022/06/20 10:11:48;;;;;;;9.15;2.45;;;;;;;;;;4389212;32;20185;-66
2022/06/20 10:14:19;;;;;;;10.98;2.65;;;;;;;;;;4338796;33;20165;-66
2022/06/20 10:16:49;;;;;;;9.98;2.70;;;;;;;;;;4339711;32;20031;-67
2022/06/20 10:19:26;;;;;;;19.02;3.87;;;;;;;;;;4368128;32;20070;-67
2022/06/20 10:22:03;;;;;;;7.82;2.70;;;;;;;;;;4391540;32;20031;-67
2022/06/20 10:24:31;;;;;;;8.77;2.85;;;;;;;;;;4388504;32;20025;-67
2022/06/20 10:27:15;;;;;;;10.23;3.15;;;;;;;;;;4391200;32;20065;-67
2022/06/20 10:30:01;;;;;;;7.70;2.53;;;;;;;;;;4389464;32;20089;-67
2022/06/20 10:32:36;;;;;;;9.80;2.87;;;;;;;;;;4390480;32;20117;-66
2022/06/20 10:35:19;;;;;;;8.07;2.65;;;;;;;;;;4390021;32;20031;-67
2022/06/20 10:37:47;;;;;;;12.95;3.30;;;;;;;;;;4390603;32;20137;-67
2022/06/20 10:40:31;;;;;;;7.32;2.60;;;;;;;;;;4389143;32;20065;-67
2022/06/20 10:43:11;;;;;;;14.57;3.42;;;;;;;;;;4388589;32;20090;-67
2022/06/20 10:45:42;;;;;;;9.10;2.92;;;;;;;;;;4383552;32;20054;-67
2022/06/20 10:48:14;;;;;;;10.13;3.78;;;;;;;;;;4388732;32;20121;-67
2022/06/20 10:50:50;;;;;;;13.75;3.47;;;;;;;;;;4389637;32;20369;-66
2022/06/20 10:53:34;;;;;;;14.57;3.00;;;;;;;;;;4381716;32;20038;-67
2022/06/20 10:56:15;;;;;;;9.90;3.37;;;;;;;;;;4374875;32;20047;-66
2022/06/20 10:58:52;;;;;;;11.43;3.42;;;;;;;;;;4389509;32;20087;-66
2022/06/20 11:01:24;;;;;;;6.93;2.75;;;;;;;;;;4390444;32;20038;-67
2022/06/20 11:04:08;;;;;;;9.82;3.08;;;;;;;;;;4389388;32;20060;-67
2022/06/20 11:06:46;;;;;;;9.15;3.40;;;;;;;;;;4388407;32;20070;-67
2022/06/20 11:09:22;;;;;;;13.88;2.80;;;;;;;;;;4389301;32;20053;-66
2022/06/20 11:11:56;;;;;;;6.32;2.50;;;;;;;;;;4381243;32;20056;-68
2022/06/20 11:14:27;;;;;;;11.27;2.97;;;;;;;;;;4390013;32;20597;-67
2022/06/20 11:16:55;;;;;;;13.82;3.65;;;;;;;;;;4388003;32;20416;-68
2022/06/20 11:19:20;;;;;;;12.23;2.72;;;;;;;;;;4389253;32;20466;-67
2022/06/20 11:21:51;;;;;;;11.40;2.80;;;;;;;;;;4389376;32;20031;-67
2022/06/20 11:24:37;;;;;;;8.85;3.17;;;;;;;;;;4390413;32;20185;-67
2022/06/20 11:27:16;;;;;;;14.23;3.67;;;;;;;;;;4373823;32;20424;-67
2022/06/20 11:29:41;;;;;;;11.48;2.83;;;;;;;;;;4382859;32;20082;-67
2022/06/20 11:32:14;;;;;;;15.38;3.85;;;;;;;;;;4373402;32;20065;-66
2022/06/20 11:34:48;;;;;;;7.78;3.80;;;;;;;;;;4384657;32;20616;-67
2022/06/20 11:37:24;;;;;;;10.35;3.17;;;;;;;;;;4363738;32;20074;-67
2022/06/20 11:40:09;;;;;;;10.30;2.25;;;;;;;;;;4376616;32;20042;-68
2022/06/20 11:42:38;;;;;;;7.90;2.67;;;;;;;;;;4388349;32;20034;-67
2022/06/20 11:45:22;;;;;;;9.45;2.92;;;;;;;;;;4388596;32;20052;-67
2022/06/20 11:47:53;;;;;;;8.90;2.60;;;;;;;;;;4371066;32;20507;-67
2022/06/20 11:50:29;;;;;;;11.45;2.50;;;;;;;;;;4387293;32;20057;-66
2022/06/20 11:52:58;;;;;;;6.82;2.35;;;;;;;;;;4390080;32;20062;-67
2022/06/20 11:55:23;;;;;;;13.70;3.35;;;;;;;;;;4390530;32;20133;-69
2022/06/20 11:57:54;;;;;;;12.10;3.47;;;;;;;;;;4389271;32;20027;-68
2022/06/20 12:00:26;;;;;;;10.98;2.95;;;;;;;;;;4387843;32;20145;-67
2022/06/20 12:03:20;;;;;;;9.57;2.67;;;;;;;;;;4388601;32;20035;-68
2022/06/20 12:06:04;;;;;;;9.88;2.80;;;;;;;;;;4375804;32;20073;-70
2022/06/20 12:08:42;;;;;;;11.20;3.08;;;;;;;;;;4386593;32;20034;-67
2022/06/20 12:11:12;;;;;;;12.25;3.03;;;;;;;;;;4388158;32;20080;-67
2022/06/20 12:13:37;;;;;;;11.40;2.97;;;;;;;;;;4374869;32;20109;-67
2022/06/20 12:16:09;;;;;;;9.77;3.90;;;;;;;;;;4386833;32;20053;-67
2022/06/20 12:24:21;;;;;;;13.73;3.22;;;;;;;;;;4385789;32;20076;-67
2022/06/20 12:26:46;;;;;;;10.15;3.33;;;;;;;;;;4386918;32;20030;-66
2022/06/20 12:29:14;;;;;;;12.25;3.20;;;;;;;;;;4389279;32;20049;-67
2022/06/20 12:31:41;;;;;;;13.00;3.37;;;;;;;;;;4374144;32;20072;-67
2022/06/20 12:34:06;;;;;;;9.85;3.10;;;;;;;;;;4377706;32;20396;-67
2022/06/20 12:36:44;;;;;;;12.45;3.05;;;;;;;;;;4375213;32;20134;-67
2022/06/20 12:39:09;;;;;;;10.13;2.75;;;;;;;;;;4386652;32;20022;-67
2022/06/20 12:41:37;;;;;;;11.40;4.05;;;;;;;;;;4385949;32;20133;-68
2022/06/20 12:44:20;;;;;;;12.37;3.62;;;;;;;;;;4390672;32;20224;-68
2022/06/20 12:46:50;;;;;;;10.82;3.85;;;;;;;;;;4372742;32;20089;-67
2022/06/20 12:49:26;;;;;;;10.43;2.95;;;;;;;;;;4375435;32;20051;-67
2022/06/20 12:52:02;;;;;;;13.20;3.45;;;;;;;;;;4391328;32;20076;-67
2022/06/20 12:54:38;;;;;;;14.57;3.47;;;;;;;;;;4390204;32;20409;-67
2022/06/20 12:57:10;;;;;;;14.25;3.95;;;;;;;;;;4377090;32;20199;-67
2022/06/20 13:00:08;;;;;;;9.13;3.05;;;;;;;;;;4376366;32;20031;-67
2022/06/20 13:02:48;;;;;;;10.73;3.00;;;;;;;;;;4381172;32;20213;-67
2022/06/20 13:05:33;;;;;;;8.95;3.12;;;;;;;;;;4377182;32;20057;-67
2022/06/20 13:08:17;;;;;;;13.90;2.85;;;;;;;;;;4392380;32;20103;-68
2022/06/20 13:11:01;;;;;;;10.90;3.62;;;;;;;;;;4364109;32;20392;-68
2022/06/20 13:13:44;;;;;;;9.98;2.55;;;;;;;;;;4390437;32;20387;-67
2022/06/20 13:16:22;;;;;;;9.88;2.95;;;;;;;;;;4393022;32;20026;-67
2022/06/20 13:18:48;;;;;;;15.45;2.65;;;;;;;;;;4391127;32;20097;-67
2022/06/20 13:21:16;;;;;;;7.90;2.30;;;;;;;;;;4378319;32;20124;-67
2022/06/20 13:23:52;;;;;;;10.43;2.25;;;;;;;;;;4388203;32;20135;-67
2022/06/20 13:26:32;;;;;;;11.35;2.60;;;;;;;;;;4389783;32;20061;-67
2022/06/20 13:29:02;;;;;;;9.55;2.45;;;;;;;;;;4392661;32;20097;-68
2022/06/20 13:31:34;;;;;;;7.90;2.72;;;;;;;;;;4390917;32;20084;-67
2022/06/20 13:34:05;;;;;;;6.40;2.40;;;;;;;;;;4391568;32;20080;-67
2022/06/20 13:36:39;;;;;;;7.00;2.45;;;;;;;;;;4392504;32;20325;-66
2022/06/20 13:39:19;;;;;;;10.68;2.30;;;;;;;;;;4392943;32;20554;-67
2022/06/20 13:41:46;;;;;;;10.13;2.33;;;;;;;;;;4389572;32;20137;-68
2022/06/20 13:44:30;;;;;;;6.65;2.37;;;;;;;;;;4391957;32;20039;-68
2022/06/20 13:47:00;;;;;;;7.47;2.20;;;;;;;;;;4391580;32;20030;-67
2022/06/20 13:49:31;;;;;;;8.20;2.03;;;;;;;;;;4392353;32;20026;-67
2022/06/20 13:52:01;;;;;;;6.62;2.47;;;;;;;;;;4377487;32;20034;-66
2022/06/20 13:54:29;;;;;;;6.00;2.00;;;;;;;;;;4388556;32;20054;-67
2022/06/20 13:57:01;;;;;;;10.23;2.58;;;;;;;;;;4387249;32;20098;-68
2022/06/20 13:59:45;;;;;;;6.43;1.92;;;;;;;;;;4377984;32;20062;-68
2022/06/20 14:02:26;;;;;;;13.73;2.53;;;;;;;;;;4390275;32;20068;-68
2022/06/20 14:04:51;;;;;;;7.80;2.60;;;;;;;;;;4391697;32;20110;-68
2022/06/20 14:07:21;;;;;;;7.40;2.05;;;;;;;;;;4389300;32;20061;-68
2022/06/20 14:09:51;;;;;;;12.05;2.30;;;;;;;;;;4391726;32;20471;-67
2022/06/20 14:12:28;;;;;;;5.62;2.08;;;;;;;;;;4391846;32;20166;-67
2022/06/20 14:15:00;;;;;;;5.50;1.95;;;;;;;;;;4391471;32;20563;-68
2022/06/20 14:17:26;;;;;;;4.87;1.87;;;;;;;;;;4378142;32;20437;-68
2022/06/20 14:19:57;;;;;;;6.12;2.60;;;;;;;;;;4391350;32;20030;-68
2022/06/20 14:22:34;;;;;;;8.95;2.42;;;;;;;;;;4390913;32;20030;-67
2022/06/20 14:25:01;;;;;;;9.80;2.95;;;;;;;;;;4381514;32;20031;-67
2022/06/20 14:27:29;;;;;;;7.28;2.20;;;;;;;;;;4385274;32;20144;-68
2022/06/20 14:30:03;;;;;;;7.30;2.15;;;;;;;;;;4386801;32;20058;-67
2022/06/20 14:32:44;;;;;;;7.85;2.37;;;;;;;;;;4389338;32;20048;-68
2022/06/20 14:35:22;;;;;;;6.62;2.20;;;;;;;;;;4387516;32;20345;-69
2022/06/20 14:37:50;;;;;;;9.10;2.12;;;;;;;;;;4385646;32;20113;-68
2022/06/20 14:40:24;;;;;;;11.75;2.15;;;;;;;;;;4389017;32;20027;-67
2022/06/20 14:43:05;;;;;;;5.68;2.17;;;;;;;;;;4388761;32;20454;-67
2022/06/20 14:45:47;;;;;;;7.70;2.55;;;;;;;;;;4389697;32;20396;-67
2022/06/20 14:48:25;;;;;;;10.65;2.67;;;;;;;;;;4390719;32;20026;-68
2022/06/20 14:50:52;;;;;;;9.93;2.60;;;;;;;;;;4391071;32;20084;-68
2022/06/20 14:53:39;;;;;;;10.32;2.70;;;;;;;;;;4386026;32;20101;-68
2022/06/20 14:56:08;;;;;;;7.43;2.50;;;;;;;;;;4391172;32;20479;-68
2022/06/20 14:58:41;;;;;;;12.50;2.72;;;;;;;;;;4391713;32;20360;-68
2022/06/20 15:01:25;;;;;;;6.68;2.92;;;;;;;;;;4388595;32;20070;-68
2022/06/20 15:03:55;;;;;;;6.03;2.90;;;;;;;;;;4386897;32;20039;-68
2022/06/20 15:06:24;;;;;;;10.48;2.62;;;;;;;;;;4388615;32;20050;-68
2022/06/20 15:08:52;;;;;;;9.15;3.08;;;;;;;;;;4374432;32;20432;-68
2022/06/20 15:11:24;;;;;;;5.95;2.17;;;;;;;;;;4390852;32;20027;-68
2022/06/20 15:14:01;;;;;;;5.72;1.98;;;;;;;;;;4387851;32;20027;-68